sensor_id;sensor_type;location;lat;lon;timestamp;temperature;humidity
9861;DHT22;4969;52.304;4.968;2023-05-20T00:00:20;15.04;69.52
9861;DHT22;4969;52.304;4.968;2023-05-20T00:02:47;15.83;66.69
9861;DHT22;4969;52.304;4.968;2023-05-20T00:05:14;16.31;63.61
9861;DHT22;4969;52.304;4.968;2023-05-20T00:07:40;15.81;63.51
9861;DHT22;4969;52.304;4.968;2023-05-20T00:10:07;15.65;62.95
9861;DHT22;4969;52.304;4.968;2023-05-20T00:12:34;14.83;64.37
9861;DHT22;4969;52.304;4.968;2023-05-20T00:15:02;15.18;69.81
9861;DHT22;4969;52.304;4.968;2023-05-20T00:17:29;15.68;65.76
9861;DHT22;4969;52.304;4.968;2023-05-20T00:19:56;15.33;62.39
9861;DHT22;4969;52.304;4.968;2023-05-20T00:22:24;15.09;69.73
9861;DHT22;4969;52.304;4.968;2023-05-20T00:24:50;14.81;67.82
9861;DHT22;4969;52.304;4.968;2023-05-20T00:27:17;14.88;71.73
9861;DHT22;4969;52.304;4.968;2023-05-20T00:29:44;15.18;66.62
9861;DHT22;4969;52.304;4.968;2023-05-20T00:32:11;15.28;64.79
9861;DHT22;4969;52.304;4.968;2023-05-20T00:34:38;14.47;65.06
9861;DHT22;4969;52.304;4.968;2023-05-20T00:37:04;14.40;65.43
9861;DHT22;4969;52.304;4.968;2023-05-20T00:39:31;14.52;68.79
9861;DHT22;4969;52.304;4.968;2023-05-20T00:41:58;14.73;71.17
9861;DHT22;4969;52.304;4.968;2023-05-20T00:44:26;14.96;65.25
9861;DHT22;4969;52.304;4.968;2023-05-20T00:46:53;15.36;71.36
9861;DHT22;4969;52.304;4.968;2023-05-20T00:49:21;15.97;67.46
9861;DHT22;4969;52.304;4.968;2023-05-20T00:51:49;15.26;63.12
9861;DHT22;4969;52.304;4.968;2023-05-20T00:54:15;15.13;66.59
9861;DHT22;4969;52.304;4.968;2023-05-20T00:56:42;14.62;65.34
9861;DHT22;4969;52.304;4.968;2023-05-20T00:59:09;15.24;66.13
9861;DHT22;4969;52.304;4.968;2023-05-20T01:01:36;15.45;66.19
9861;DHT22;4969;52.304;4.968;2023-05-20T01:04:03;14.99;64.27
9861;DHT22;4969;52.304;4.968;2023-05-20T01:06:31;15.44;69.81
9861;DHT22;4969;52.304;4.968;2023-05-20T01:08:58;14.98;64.37
9861;DHT22;4969;52.304;4.968;2023-05-20T01:11:29;14.98;70.61
9861;DHT22;4969;52.304;4.968;2023-05-20T01:14:00;14.21;66.09
9861;DHT22;4969;52.304;4.968;2023-05-20T01:16:29;14.17;66.30
9861;DHT22;4969;52.304;4.968;2023-05-20T01:18:58;13.66;67.71
9861;DHT22;4969;52.304;4.968;2023-05-20T01:21:26;14.31;68.11
9861;DHT22;4969;52.304;4.968;2023-05-20T01:23:57;14.13;67.54
9861;DHT22;4969;52.304;4.968;2023-05-20T01:26:25;14.18;70.41
9861;DHT22;4969;52.304;4.968;2023-05-20T01:28:52;13.96;70.00
9861;DHT22;4969;52.304;4.968;2023-05-20T01:31:23;14.47;71.96
9861;DHT22;4969;52.304;4.968;2023-05-20T01:33:54;14.35;66.89
9861;DHT22;4969;52.304;4.968;2023-05-20T01:36:22;13.79;70.10
9861;DHT22;4969;52.304;4.968;2023-05-20T01:38:52;13.59;71.99
9861;DHT22;4969;52.304;4.968;2023-05-20T01:41:22;13.45;69.23
9861;DHT22;4969;52.304;4.968;2023-05-20T01:43:49;13.44;69.06
9861;DHT22;4969;52.304;4.968;2023-05-20T01:46:16;13.47;71.60
9861;DHT22;4969;52.304;4.968;2023-05-20T01:48:43;13.79;70.10
9861;DHT22;4969;52.304;4.968;2023-05-20T01:51:09;13.47;68.95
9861;DHT22;4969;52.304;4.968;2023-05-20T01:53:36;12.89;71.63
9861;DHT22;4969;52.304;4.968;2023-05-20T01:56:04;13.33;71.54
9861;DHT22;4969;52.304;4.968;2023-05-20T01:58:32;13.90;70.79
9861;DHT22;4969;52.304;4.968;2023-05-20T02:00:59;14.44;70.32
9861;DHT22;4969;52.304;4.968;2023-05-20T02:03:25;13.51;69.04
9861;DHT22;4969;52.304;4.968;2023-05-20T02:05:52;13.83;70.98
9861;DHT22;4969;52.304;4.968;2023-05-20T02:08:18;13.57;69.10
9861;DHT22;4969;52.304;4.968;2023-05-20T02:10:47;13.69;70.06
9861;DHT22;4969;52.304;4.968;2023-05-20T02:13:13;13.63;73.68
9861;DHT22;4969;52.304;4.968;2023-05-20T02:15:41;14.10;71.67
9861;DHT22;4969;52.304;4.968;2023-05-20T02:18:08;13.47;70.58
9861;DHT22;4969;52.304;4.968;2023-05-20T02:20:36;13.47;69.65
9861;DHT22;4969;52.304;4.968;2023-05-20T02:23:03;13.63;73.45
9861;DHT22;4969;52.304;4.968;2023-05-20T02:25:30;13.50;68.91
9861;DHT22;4969;52.304;4.968;2023-05-20T02:27:57;13.45;69.79
9861;DHT22;4969;52.304;4.968;2023-05-20T02:30:23;13.45;71.58
9861;DHT22;4969;52.304;4.968;2023-05-20T02:32:51;13.65;71.62
9861;DHT22;4969;52.304;4.968;2023-05-20T02:35:18;14.16;70.09
9861;DHT22;4969;52.304;4.968;2023-05-20T02:37:44;14.34;68.75
9861;DHT22;4969;52.304;4.968;2023-05-20T02:40:12;13.74;69.67
9861;DHT22;4969;52.304;4.968;2023-05-20T02:42:39;13.66;72.35
9861;DHT22;4969;52.304;4.968;2023-05-20T02:45:07;14.35;70.31
9861;DHT22;4969;52.304;4.968;2023-05-20T02:47:33;13.59;69.09
9861;DHT22;4969;52.304;4.968;2023-05-20T02:50:01;13.62;71.60
9861;DHT22;4969;52.304;4.968;2023-05-20T02:52:28;13.83;69.54
9861;DHT22;4969;52.304;4.968;2023-05-20T02:54:55;13.45;69.42
9861;DHT22;4969;52.304;4.968;2023-05-20T02:57:21;13.38;71.30
9861;DHT22;4969;52.304;4.968;2023-05-20T02:59:48;13.47;69.30
9861;DHT22;4969;52.304;4.968;2023-05-20T03:02:14;13.07;70.91
9861;DHT22;4969;52.304;4.968;2023-05-20T03:04:41;13.55;72.61
9861;DHT22;4969;52.304;4.968;2023-05-20T03:07:12;13.81;71.17
9861;DHT22;4969;52.304;4.968;2023-05-20T03:09:40;14.48;69.24
9861;DHT22;4969;52.304;4.968;2023-05-20T03:12:07;14.52;66.42
9861;DHT22;4969;52.304;4.968;2023-05-20T03:14:33;15.26;71.01
9861;DHT22;4969;52.304;4.968;2023-05-20T03:17:00;14.85;66.74
9861;DHT22;4969;52.304;4.968;2023-05-20T03:19:26;14.14;68.27
9861;DHT22;4969;52.304;4.968;2023-05-20T03:21:53;13.79;68.43
9861;DHT22;4969;52.304;4.968;2023-05-20T03:24:21;13.71;68.96
9861;DHT22;4969;52.304;4.968;2023-05-20T03:26:48;13.59;69.10
9861;DHT22;4969;52.304;4.968;2023-05-20T03:29:15;13.58;69.50
9861;DHT22;4969;52.304;4.968;2023-05-20T03:31:43;13.07;70.33
9861;DHT22;4969;52.304;4.968;2023-05-20T03:34:10;13.19;70.11
9861;DHT22;4969;52.304;4.968;2023-05-20T03:36:36;13.40;74.26
9861;DHT22;4969;52.304;4.968;2023-05-20T03:39:03;13.34;70.15
9861;DHT22;4969;52.304;4.968;2023-05-20T03:41:31;13.85;69.73
9861;DHT22;4969;52.304;4.968;2023-05-20T03:43:57;13.85;68.08
9861;DHT22;4969;52.304;4.968;2023-05-20T03:46:24;13.68;71.09
9861;DHT22;4969;52.304;4.968;2023-05-20T03:48:50;13.79;71.24
9861;DHT22;4969;52.304;4.968;2023-05-20T03:51:17;14.38;69.71
9861;DHT22;4969;52.304;4.968;2023-05-20T03:53:43;14.26;68.16
9861;DHT22;4969;52.304;4.968;2023-05-20T03:56:10;14.76;66.42
9861;DHT22;4969;52.304;4.968;2023-05-20T03:58:38;14.81;69.05
9861;DHT22;4969;52.304;4.968;2023-05-20T04:01:04;13.86;68.82
9861;DHT22;4969;52.304;4.968;2023-05-20T04:03:31;14.07;68.10
9861;DHT22;4969;52.304;4.968;2023-05-20T04:05:58;13.26;70.75
9861;DHT22;4969;52.304;4.968;2023-05-20T04:08:25;12.96;72.24
9861;DHT22;4969;52.304;4.968;2023-05-20T04:10:54;13.19;72.27
9861;DHT22;4969;52.304;4.968;2023-05-20T04:13:21;13.38;71.61
9861;DHT22;4969;52.304;4.968;2023-05-20T04:15:50;13.34;71.89
9861;DHT22;4969;52.304;4.968;2023-05-20T04:18:17;13.42;72.00
9861;DHT22;4969;52.304;4.968;2023-05-20T04:20:44;13.28;72.62
9861;DHT22;4969;52.304;4.968;2023-05-20T04:23:11;13.85;75.43
9861;DHT22;4969;52.304;4.968;2023-05-20T04:25:37;14.23;70.87
9861;DHT22;4969;52.304;4.968;2023-05-20T04:28:05;13.74;73.15
9861;DHT22;4969;52.304;4.968;2023-05-20T04:30:33;13.65;71.92
9861;DHT22;4969;52.304;4.968;2023-05-20T04:33:01;13.59;72.16
9861;DHT22;4969;52.304;4.968;2023-05-20T04:35:28;13.57;73.25
9861;DHT22;4969;52.304;4.968;2023-05-20T04:37:54;13.50;72.82
9861;DHT22;4969;52.304;4.968;2023-05-20T04:40:21;13.48;73.62
9861;DHT22;4969;52.304;4.968;2023-05-20T04:42:48;14.42;72.20
9861;DHT22;4969;52.304;4.968;2023-05-20T04:45:15;13.77;71.87
9861;DHT22;4969;52.304;4.968;2023-05-20T04:47:42;13.99;76.53
9861;DHT22;4969;52.304;4.968;2023-05-20T04:50:11;13.74;74.28
9861;DHT22;4969;52.304;4.968;2023-05-20T04:52:39;13.71;73.13
9861;DHT22;4969;52.304;4.968;2023-05-20T04:55:07;14.02;73.89
9861;DHT22;4969;52.304;4.968;2023-05-20T04:57:34;13.62;73.59
9861;DHT22;4969;52.304;4.968;2023-05-20T05:00:03;13.68;75.52
9861;DHT22;4969;52.304;4.968;2023-05-20T05:02:31;13.77;74.84
9861;DHT22;4969;52.304;4.968;2023-05-20T05:04:58;13.75;73.42
9861;DHT22;4969;52.304;4.968;2023-05-20T05:07:26;14.09;72.81
9861;DHT22;4969;52.304;4.968;2023-05-20T05:09:53;14.02;74.10
9861;DHT22;4969;52.304;4.968;2023-05-20T05:12:19;13.82;74.03
9861;DHT22;4969;52.304;4.968;2023-05-20T05:14:46;14.28;74.31
9861;DHT22;4969;52.304;4.968;2023-05-20T05:17:12;14.31;71.42
9861;DHT22;4969;52.304;4.968;2023-05-20T05:19:39;13.61;74.14
9861;DHT22;4969;52.304;4.968;2023-05-20T05:22:05;13.65;74.39
9861;DHT22;4969;52.304;4.968;2023-05-20T05:24:33;13.83;77.17
9861;DHT22;4969;52.304;4.968;2023-05-20T05:27:00;13.85;74.37
9861;DHT22;4969;52.304;4.968;2023-05-20T05:29:26;13.61;74.33
9861;DHT22;4969;52.304;4.968;2023-05-20T05:31:53;13.65;74.18
9861;DHT22;4969;52.304;4.968;2023-05-20T05:34:19;13.72;74.63
9861;DHT22;4969;52.304;4.968;2023-05-20T05:36:46;13.93;72.41
9861;DHT22;4969;52.304;4.968;2023-05-20T05:39:12;14.96;73.58
9861;DHT22;4969;52.304;4.968;2023-05-20T05:41:40;14.41;68.19
9861;DHT22;4969;52.304;4.968;2023-05-20T05:44:07;13.81;71.27
9861;DHT22;4969;52.304;4.968;2023-05-20T05:46:33;13.62;70.46
9861;DHT22;4969;52.304;4.968;2023-05-20T05:49:00;13.85;73.46
9861;DHT22;4969;52.304;4.968;2023-05-20T05:51:26;13.93;70.09
9861;DHT22;4969;52.304;4.968;2023-05-20T05:53:53;13.63;69.97
9861;DHT22;4969;52.304;4.968;2023-05-20T05:56:20;13.34;71.02
9861;DHT22;4969;52.304;4.968;2023-05-20T05:58:48;13.40;71.67
9861;DHT22;4969;52.304;4.968;2023-05-20T06:01:14;13.61;71.80
9861;DHT22;4969;52.304;4.968;2023-05-20T06:03:41;13.48;71.01
9861;DHT22;4969;52.304;4.968;2023-05-20T06:06:07;13.99;74.49
9861;DHT22;4969;52.304;4.968;2023-05-20T06:08:34;14.09;69.77
9861;DHT22;4969;52.304;4.968;2023-05-20T06:11:01;13.85;70.49
9861;DHT22;4969;52.304;4.968;2023-05-20T06:13:27;13.47;70.64
9861;DHT22;4969;52.304;4.968;2023-05-20T06:15:55;13.57;72.60
9861;DHT22;4969;52.304;4.968;2023-05-20T06:18:22;13.48;70.75
9861;DHT22;4969;52.304;4.968;2023-05-20T06:20:54;13.75;69.86
9861;DHT22;4969;52.304;4.968;2023-05-20T06:23:20;13.59;71.06
9861;DHT22;4969;52.304;4.968;2023-05-20T06:25:47;13.66;70.57
9861;DHT22;4969;52.304;4.968;2023-05-20T06:28:14;14.09;72.79
9861;DHT22;4969;52.304;4.968;2023-05-20T06:30:40;14.00;69.47
9861;DHT22;4969;52.304;4.968;2023-05-20T06:33:08;14.27;75.13
9861;DHT22;4969;52.304;4.968;2023-05-20T06:35:35;14.14;68.94
9861;DHT22;4969;52.304;4.968;2023-05-20T06:38:02;14.17;70.07
9861;DHT22;4969;52.304;4.968;2023-05-20T06:40:28;13.99;70.38
9861;DHT22;4969;52.304;4.968;2023-05-20T06:42:55;14.05;69.98
9861;DHT22;4969;52.304;4.968;2023-05-20T06:45:21;14.47;73.27
9861;DHT22;4969;52.304;4.968;2023-05-20T06:47:48;14.55;68.97
9861;DHT22;4969;52.304;4.968;2023-05-20T06:50:16;15.02;71.09
9861;DHT22;4969;52.304;4.968;2023-05-20T06:52:43;16.16;69.62
9861;DHT22;4969;52.304;4.968;2023-05-20T06:55:10;15.81;65.93
9861;DHT22;4969;52.304;4.968;2023-05-20T06:57:37;16.38;64.44
9861;DHT22;4969;52.304;4.968;2023-05-20T07:00:04;15.55;66.53
9861;DHT22;4969;52.304;4.968;2023-05-20T07:02:32;16.21;70.37
9861;DHT22;4969;52.304;4.968;2023-05-20T07:04:59;16.77;65.10
9861;DHT22;4969;52.304;4.968;2023-05-20T07:07:26;16.61;66.53
9861;DHT22;4969;52.304;4.968;2023-05-20T07:09:53;16.33;63.30
9861;DHT22;4969;52.304;4.968;2023-05-20T07:12:20;15.38;65.53
9861;DHT22;4969;52.304;4.968;2023-05-20T07:14:46;14.88;68.01
9861;DHT22;4969;52.304;4.968;2023-05-20T07:17:13;15.64;72.59
9861;DHT22;4969;52.304;4.968;2023-05-20T07:19:40;16.62;67.94
9861;DHT22;4969;52.304;4.968;2023-05-20T07:22:06;17.04;65.96
9861;DHT22;4969;52.304;4.968;2023-05-20T07:24:35;16.45;63.61
9861;DHT22;4969;52.304;4.968;2023-05-20T07:27:02;15.79;65.68
9861;DHT22;4969;52.304;4.968;2023-05-20T07:29:29;15.73;67.92
9861;DHT22;4969;52.304;4.968;2023-05-20T07:31:55;15.97;65.71
9861;DHT22;4969;52.304;4.968;2023-05-20T07:34:22;16.02;65.12
9861;DHT22;4969;52.304;4.968;2023-05-20T07:36:48;15.36;66.58
9861;DHT22;4969;52.304;4.968;2023-05-20T07:39:15;15.27;67.59
9861;DHT22;4969;52.304;4.968;2023-05-20T07:41:43;15.58;69.77
9861;DHT22;4969;52.304;4.968;2023-05-20T07:44:10;15.33;68.03
9861;DHT22;4969;52.304;4.968;2023-05-20T07:46:38;15.58;67.31
9861;DHT22;4969;52.304;4.968;2023-05-20T07:49:06;15.66;67.29
9861;DHT22;4969;52.304;4.968;2023-05-20T07:51:32;15.96;66.90
9861;DHT22;4969;52.304;4.968;2023-05-20T07:53:59;16.24;66.60
9861;DHT22;4969;52.304;4.968;2023-05-20T07:56:25;17.02;65.42
9861;DHT22;4969;52.304;4.968;2023-05-20T07:58:55;16.33;64.37
9861;DHT22;4969;52.304;4.968;2023-05-20T08:01:22;16.28;64.88
9861;DHT22;4969;52.304;4.968;2023-05-20T08:03:49;16.03;66.66
9861;DHT22;4969;52.304;4.968;2023-05-20T08:06:15;16.06;66.15
9861;DHT22;4969;52.304;4.968;2023-05-20T08:08:42;16.14;67.28
9861;DHT22;4969;52.304;4.968;2023-05-20T08:11:09;16.64;65.94
9861;DHT22;4969;52.304;4.968;2023-05-20T08:13:35;16.36;66.94
9861;DHT22;4969;52.304;4.968;2023-05-20T08:16:04;17.65;62.09
9861;DHT22;4969;52.304;4.968;2023-05-20T08:18:31;16.73;64.19
9861;DHT22;4969;52.304;4.968;2023-05-20T08:20:58;16.62;65.35
9861;DHT22;4969;52.304;4.968;2023-05-20T08:23:25;17.10;63.02
9861;DHT22;4969;52.304;4.968;2023-05-20T08:25:51;16.42;65.88
9861;DHT22;4969;52.304;4.968;2023-05-20T08:28:18;16.72;66.14
9861;DHT22;4969;52.304;4.968;2023-05-20T08:30:46;16.66;65.00
9861;DHT22;4969;52.304;4.968;2023-05-20T08:33:14;16.41;66.04
9861;DHT22;4969;52.304;4.968;2023-05-20T08:35:42;16.54;65.91
9861;DHT22;4969;52.304;4.968;2023-05-20T08:38:08;16.42;67.17
9861;DHT22;4969;52.304;4.968;2023-05-20T08:40:35;16.44;66.36
9861;DHT22;4969;52.304;4.968;2023-05-20T08:43:01;16.36;65.43
9861;DHT22;4969;52.304;4.968;2023-05-20T08:45:31;16.52;64.93
9861;DHT22;4969;52.304;4.968;2023-05-20T08:47:58;16.42;65.45
9861;DHT22;4969;52.304;4.968;2023-05-20T08:50:26;16.61;65.10
9861;DHT22;4969;52.304;4.968;2023-05-20T08:52:53;16.33;64.17
9861;DHT22;4969;52.304;4.968;2023-05-20T08:55:24;16.95;63.31
9861;DHT22;4969;52.304;4.968;2023-05-20T08:57:51;16.95;63.63
9861;DHT22;4969;52.304;4.968;2023-05-20T09:00:19;16.57;64.27
9861;DHT22;4969;52.304;4.968;2023-05-20T09:02:47;16.82;65.06
9861;DHT22;4969;52.304;4.968;2023-05-20T09:05:16;17.28;63.67
9861;DHT22;4969;52.304;4.968;2023-05-20T09:07:44;17.79;61.60
9861;DHT22;4969;52.304;4.968;2023-05-20T09:10:11;17.47;62.14
9861;DHT22;4969;52.304;4.968;2023-05-20T09:12:38;16.98;63.57
9861;DHT22;4969;52.304;4.968;2023-05-20T09:15:06;16.92;64.50
9861;DHT22;4969;52.304;4.968;2023-05-20T09:17:34;17.12;62.03
9861;DHT22;4969;52.304;4.968;2023-05-20T09:20:00;17.58;62.39
9861;DHT22;4969;52.304;4.968;2023-05-20T09:22:28;18.45;58.61
9861;DHT22;4969;52.304;4.968;2023-05-20T09:24:56;18.06;60.67
9861;DHT22;4969;52.304;4.968;2023-05-20T09:27:22;17.52;61.77
9861;DHT22;4969;52.304;4.968;2023-05-20T09:29:49;17.61;61.70
9861;DHT22;4969;52.304;4.968;2023-05-20T09:32:19;18.04;58.12
9861;DHT22;4969;52.304;4.968;2023-05-20T09:34:48;18.37;59.92
9861;DHT22;4969;52.304;4.968;2023-05-20T09:37:17;17.65;58.65
9861;DHT22;4969;52.304;4.968;2023-05-20T09:39:54;17.52;60.16
9861;DHT22;4969;52.304;4.968;2023-05-20T09:42:25;17.86;60.08
9861;DHT22;4969;52.304;4.968;2023-05-20T09:44:53;18.20;60.01
9861;DHT22;4969;52.304;4.968;2023-05-20T09:47:21;18.23;59.13
9861;DHT22;4969;52.304;4.968;2023-05-20T09:49:49;18.20;58.25
9861;DHT22;4969;52.304;4.968;2023-05-20T09:52:17;17.81;59.76
9861;DHT22;4969;52.304;4.968;2023-05-20T09:54:44;17.30;59.57
9861;DHT22;4969;52.304;4.968;2023-05-20T09:57:11;17.65;60.75
9861;DHT22;4969;52.304;4.968;2023-05-20T09:59:39;17.62;60.10
9861;DHT22;4969;52.304;4.968;2023-05-20T10:02:07;16.99;62.00
9861;DHT22;4969;52.304;4.968;2023-05-20T10:04:36;16.99;63.23
9861;DHT22;4969;52.304;4.968;2023-05-20T10:07:26;17.20;62.63
9861;DHT22;4969;52.304;4.968;2023-05-20T10:10:05;17.10;62.34
9861;DHT22;4969;52.304;4.968;2023-05-20T10:12:37;16.93;63.04
9861;DHT22;4969;52.304;4.968;2023-05-20T10:15:15;16.99;61.68
9861;DHT22;4969;52.304;4.968;2023-05-20T10:17:49;17.26;60.09
9861;DHT22;4969;52.304;4.968;2023-05-20T10:20:19;17.21;60.93
9861;DHT22;4969;52.304;4.968;2023-05-20T10:22:54;17.38;59.40
9861;DHT22;4969;52.304;4.968;2023-05-20T10:25:23;17.38;59.54
9861;DHT22;4969;52.304;4.968;2023-05-20T10:27:51;17.65;59.26
9861;DHT22;4969;52.304;4.968;2023-05-20T10:30:19;17.92;58.06
9861;DHT22;4969;52.304;4.968;2023-05-20T10:32:52;17.72;58.53
9861;DHT22;4969;52.304;4.968;2023-05-20T10:35:21;17.85;59.07
9861;DHT22;4969;52.304;4.968;2023-05-20T10:37:51;17.59;58.59
9861;DHT22;4969;52.304;4.968;2023-05-20T10:40:20;17.47;58.52
9861;DHT22;4969;52.304;4.968;2023-05-20T10:42:47;17.49;59.37
9861;DHT22;4969;52.304;4.968;2023-05-20T10:45:25;18.33;57.77
9861;DHT22;4969;52.304;4.968;2023-05-20T10:47:53;18.07;56.12
9861;DHT22;4969;52.304;4.968;2023-05-20T10:50:28;17.81;56.21
9861;DHT22;4969;52.304;4.968;2023-05-20T10:53:01;18.10;55.88
9861;DHT22;4969;52.304;4.968;2023-05-20T10:55:34;18.02;55.76
9861;DHT22;4969;52.304;4.968;2023-05-20T10:58:02;18.06;56.28
9861;DHT22;4969;52.304;4.968;2023-05-20T11:00:30;18.35;55.85
9861;DHT22;4969;52.304;4.968;2023-05-20T11:02:56;18.23;56.09
9861;DHT22;4969;52.304;4.968;2023-05-20T11:05:25;17.93;56.28
9861;DHT22;4969;52.304;4.968;2023-05-20T11:07:59;18.25;56.20
9861;DHT22;4969;52.304;4.968;2023-05-20T11:10:26;18.07;55.81
9861;DHT22;4969;52.304;4.968;2023-05-20T11:12:53;17.72;56.32
9861;DHT22;4969;52.304;4.968;2023-05-20T11:15:21;18.18;56.17
9861;DHT22;4969;52.304;4.968;2023-05-20T11:17:53;17.90;55.41
9861;DHT22;4969;52.304;4.968;2023-05-20T11:20:20;17.87;56.58
9861;DHT22;4969;52.304;4.968;2023-05-20T11:22:48;18.10;57.84
9861;DHT22;4969;52.304;4.968;2023-05-20T11:25:15;18.30;55.02
9861;DHT22;4969;52.304;4.968;2023-05-20T11:27:42;17.86;56.87
9861;DHT22;4969;52.304;4.968;2023-05-20T11:30:09;17.74;56.35
9861;DHT22;4969;52.304;4.968;2023-05-20T11:32:37;18.18;55.60
9861;DHT22;4969;52.304;4.968;2023-05-20T11:35:06;18.18;56.62
9861;DHT22;4969;52.304;4.968;2023-05-20T11:37:35;18.27;56.70
9861;DHT22;4969;52.304;4.968;2023-05-20T11:40:03;18.17;55.95
9861;DHT22;4969;52.304;4.968;2023-05-20T11:42:32;18.03;56.07
9861;DHT22;4969;52.304;4.968;2023-05-20T11:44:58;17.93;55.42
9861;DHT22;4969;52.304;4.968;2023-05-20T11:47:25;18.07;57.21
9861;DHT22;4969;52.304;4.968;2023-05-20T11:49:52;18.40;55.46
9861;DHT22;4969;52.304;4.968;2023-05-20T11:52:20;18.35;56.65
9861;DHT22;4969;52.304;4.968;2023-05-20T11:54:51;18.89;55.15
9861;DHT22;4969;52.304;4.968;2023-05-20T11:57:18;18.89;54.49
9861;DHT22;4969;52.304;4.968;2023-05-20T11:59:45;18.79;55.33
9861;DHT22;4969;52.304;4.968;2023-05-20T12:02:12;18.78;56.61
9861;DHT22;4969;52.304;4.968;2023-05-20T12:04:38;18.86;55.61
9861;DHT22;4969;52.304;4.968;2023-05-20T12:07:05;18.69;53.24
9861;DHT22;4969;52.304;4.968;2023-05-20T12:09:35;18.27;55.14
9861;DHT22;4969;52.304;4.968;2023-05-20T12:12:01;19.13;53.61
9861;DHT22;4969;52.304;4.968;2023-05-20T12:14:28;18.55;53.57
9861;DHT22;4969;52.304;4.968;2023-05-20T12:16:54;18.54;54.67
9861;DHT22;4969;52.304;4.968;2023-05-20T12:19:21;19.07;52.09
9861;DHT22;4969;52.304;4.968;2023-05-20T12:21:47;19.02;52.92
9861;DHT22;4969;52.304;4.968;2023-05-20T12:24:14;19.02;53.29
9861;DHT22;4969;52.304;4.968;2023-05-20T12:26:42;18.65;52.29
9861;DHT22;4969;52.304;4.968;2023-05-20T12:29:08;18.58;53.15
9861;DHT22;4969;52.304;4.968;2023-05-20T12:31:35;18.59;52.80
9861;DHT22;4969;52.304;4.968;2023-05-20T12:34:02;18.65;54.15
9861;DHT22;4969;52.304;4.968;2023-05-20T12:36:28;18.99;53.21
9861;DHT22;4969;52.304;4.968;2023-05-20T12:38:55;19.85;53.33
9861;DHT22;4969;52.304;4.968;2023-05-20T12:41:22;19.58;53.95
9861;DHT22;4969;52.304;4.968;2023-05-20T12:43:50;19.27;50.69
9861;DHT22;4969;52.304;4.968;2023-05-20T12:46:17;18.97;52.13
9861;DHT22;4969;52.304;4.968;2023-05-20T12:48:43;19.22;51.90
9861;DHT22;4969;52.304;4.968;2023-05-20T12:51:10;18.97;52.25
9861;DHT22;4969;52.304;4.968;2023-05-20T12:53:36;18.83;53.52
9861;DHT22;4969;52.304;4.968;2023-05-20T12:56:04;18.99;50.24
9861;DHT22;4969;52.304;4.968;2023-05-20T12:58:30;19.99;53.86
9861;DHT22;4969;52.304;4.968;2023-05-20T13:00:58;20.06;50.45
9861;DHT22;4969;52.304;4.968;2023-05-20T13:03:25;19.57;52.88
9861;DHT22;4969;52.304;4.968;2023-05-20T13:05:51;19.08;51.31
9861;DHT22;4969;52.304;4.968;2023-05-20T13:08:18;19.40;51.48
9861;DHT22;4969;52.304;4.968;2023-05-20T13:10:44;19.24;52.63
9861;DHT22;4969;52.304;4.968;2023-05-20T13:13:11;19.73;53.48
9861;DHT22;4969;52.304;4.968;2023-05-20T13:15:45;19.42;52.43
9861;DHT22;4969;52.304;4.968;2023-05-20T13:18:13;19.20;52.40
9861;DHT22;4969;52.304;4.968;2023-05-20T13:20:40;19.37;52.32
9861;DHT22;4969;52.304;4.968;2023-05-20T13:23:07;19.33;50.05
9861;DHT22;4969;52.304;4.968;2023-05-20T13:25:33;19.45;50.39
9861;DHT22;4969;52.304;4.968;2023-05-20T13:28:00;19.31;49.40
9861;DHT22;4969;52.304;4.968;2023-05-20T13:30:27;19.06;49.71
9861;DHT22;4969;52.304;4.968;2023-05-20T13:32:54;19.08;49.91
9861;DHT22;4969;52.304;4.968;2023-05-20T13:35:22;19.40;50.89
9861;DHT22;4969;52.304;4.968;2023-05-20T13:37:48;19.14;51.26
9861;DHT22;4969;52.304;4.968;2023-05-20T13:40:15;19.24;51.43
9861;DHT22;4969;52.304;4.968;2023-05-20T13:42:41;19.52;50.73
9861;DHT22;4969;52.304;4.968;2023-05-20T13:45:09;19.40;51.37
9861;DHT22;4969;52.304;4.968;2023-05-20T13:47:36;19.68;51.94
9861;DHT22;4969;52.304;4.968;2023-05-20T13:50:03;19.96;50.87
9861;DHT22;4969;52.304;4.968;2023-05-20T13:52:31;19.75;49.27
9861;DHT22;4969;52.304;4.968;2023-05-20T13:54:57;19.44;50.54
9861;DHT22;4969;52.304;4.968;2023-05-20T13:57:24;19.33;50.87
9861;DHT22;4969;52.304;4.968;2023-05-20T13:59:50;19.31;51.84
9861;DHT22;4969;52.304;4.968;2023-05-20T14:02:17;19.37;52.16
9861;DHT22;4969;52.304;4.968;2023-05-20T14:04:44;19.24;52.12
9861;DHT22;4969;52.304;4.968;2023-05-20T14:07:11;19.68;52.23
9861;DHT22;4969;52.304;4.968;2023-05-20T14:09:39;20.14;51.31
9861;DHT22;4969;52.304;4.968;2023-05-20T14:12:06;19.66;50.48
9861;DHT22;4969;52.304;4.968;2023-05-20T14:14:32;19.87;53.17
9861;DHT22;4969;52.304;4.968;2023-05-20T14:16:59;19.69;51.67
9861;DHT22;4969;52.304;4.968;2023-05-20T14:19:26;19.63;50.69
9861;DHT22;4969;52.304;4.968;2023-05-20T14:21:52;19.45;49.90
9861;DHT22;4969;52.304;4.968;2023-05-20T14:24:19;19.38;52.07
9861;DHT22;4969;52.304;4.968;2023-05-20T14:26:47;19.17;52.58
9861;DHT22;4969;52.304;4.968;2023-05-20T14:29:13;19.20;53.56
9861;DHT22;4969;52.304;4.968;2023-05-20T14:31:40;19.28;53.06
9861;DHT22;4969;52.304;4.968;2023-05-20T14:34:06;19.22;55.81
9861;DHT22;4969;52.304;4.968;2023-05-20T14:36:33;19.04;56.00
9861;DHT22;4969;52.304;4.968;2023-05-20T14:39:00;18.80;55.47
9861;DHT22;4969;52.304;4.968;2023-05-20T14:41:26;18.69;55.59
9861;DHT22;4969;52.304;4.968;2023-05-20T14:43:55;18.79;55.32
9861;DHT22;4969;52.304;4.968;2023-05-20T14:46:21;18.95;55.55
9861;DHT22;4969;52.304;4.968;2023-05-20T14:48:48;18.95;55.40
9861;DHT22;4969;52.304;4.968;2023-05-20T14:51:15;18.78;55.88
9861;DHT22;4969;52.304;4.968;2023-05-20T14:53:41;18.97;56.19
9861;DHT22;4969;52.304;4.968;2023-05-20T14:56:08;18.90;57.11
9861;DHT22;4969;52.304;4.968;2023-05-20T14:58:34;19.22;55.15
9861;DHT22;4969;52.304;4.968;2023-05-20T15:01:02;19.10;55.92
9861;DHT22;4969;52.304;4.968;2023-05-20T15:03:29;19.10;56.69
9861;DHT22;4969;52.304;4.968;2023-05-20T15:05:55;19.07;55.00
9861;DHT22;4969;52.304;4.968;2023-05-20T15:08:22;19.33;55.94
9861;DHT22;4969;52.304;4.968;2023-05-20T15:10:48;19.37;55.60
9861;DHT22;4969;52.304;4.968;2023-05-20T15:13:15;19.40;55.42
9861;DHT22;4969;52.304;4.968;2023-05-20T15:15:42;19.22;56.72
9861;DHT22;4969;52.304;4.968;2023-05-20T15:18:10;19.40;57.61
9861;DHT22;4969;52.304;4.968;2023-05-20T15:20:36;19.51;57.48
9861;DHT22;4969;52.304;4.968;2023-05-20T15:23:03;19.76;56.13
9861;DHT22;4969;52.304;4.968;2023-05-20T15:25:30;19.24;58.25
9861;DHT22;4969;52.304;4.968;2023-05-20T15:27:56;18.96;58.54
9861;DHT22;4969;52.304;4.968;2023-05-20T15:30:23;18.75;59.48
9861;DHT22;4969;52.304;4.968;2023-05-20T15:32:49;18.62;60.00
9861;DHT22;4969;52.304;4.968;2023-05-20T15:35:17;18.89;59.07
9861;DHT22;4969;52.304;4.968;2023-05-20T15:37:44;18.69;60.15
9861;DHT22;4969;52.304;4.968;2023-05-20T15:40:11;18.89;60.14
9861;DHT22;4969;52.304;4.968;2023-05-20T15:42:38;18.68;60.66
9861;DHT22;4969;52.304;4.968;2023-05-20T15:45:05;19.07;59.99
9861;DHT22;4969;52.304;4.968;2023-05-20T15:47:32;18.71;60.95
9861;DHT22;4969;52.304;4.968;2023-05-20T15:49:59;18.69;60.48
9861;DHT22;4969;52.304;4.968;2023-05-20T15:52:27;18.62;60.91
9861;DHT22;4969;52.304;4.968;2023-05-20T15:54:54;18.67;61.20
9861;DHT22;4969;52.304;4.968;2023-05-20T15:57:21;18.61;61.52
9861;DHT22;4969;52.304;4.968;2023-05-20T15:59:48;18.72;61.42
9861;DHT22;4969;52.304;4.968;2023-05-20T16:02:14;18.62;61.82